Time;durP1;ratioP1;P1;durP2;ratioP2;P2;SDS_P1;SDS_P2;PMS_P1;PMS_P2;Temp;Humidity;BMP_temperature;BMP_pressure;BME280_temperature;BME280_humidity;BME280_pressure;Samples;Min_cycle;Max_cycle;Signal;HPM_P1;HPM_P2
2021/11/28 00:01:13;;;;;;;7.05;3.95;;;3.30;82.90;;;;;;4972563;28;20058;-67
2021/11/28 00:03:54;;;;;;;5.80;3.22;;;3.30;82.90;;;;;;4977936;28;20042;-66
2021/11/28 00:06:29;;;;;;;7.57;4.50;;;3.40;82.60;;;;;;4979229;28;20052;-68
2021/11/28 00:09:23;;;;;;;10.77;3.70;;;3.40;82.40;;;;;;4982230;28;20127;-68
2021/11/28 00:12:25;;;;;;;6.80;2.80;;;3.40;82.50;;;;;;4977437;28;20046;-68
2021/11/28 00:15:02;;;;;;;7.03;3.40;;;3.40;82.60;;;;;;4981350;28;20059;-67
2021/11/28 00:17:32;;;;;;;10.90;3.90;;;3.30;82.70;;;;;;4982367;28;20105;-68
2021/11/28 00:19:59;;;;;;;5.25;2.70;;;3.40;82.70;;;;;;5005562;28;20063;-67
2021/11/28 00:22:26;;;;;;;9.15;4.90;;;3.40;82.70;;;;;;4980644;28;20051;-67
2021/11/28 00:24:53;;;;;;;7.97;3.65;;;3.40;82.70;;;;;;4981132;28;20042;-67
2021/11/28 00:27:22;;;;;;;6.93;4.03;;;3.40;82.80;;;;;;4970589;28;20050;-66
2021/11/28 00:29:49;;;;;;;10.15;3.85;;;3.40;82.80;;;;;;4976036;28;20147;-69
2021/11/28 00:32:17;;;;;;;6.82;4.63;;;3.40;82.80;;;;;;4981119;28;20070;-66
2021/11/28 00:34:44;;;;;;;8.75;3.80;;;3.40;82.80;;;;;;4977577;28;20054;-66
2021/11/28 00:37:13;;;;;;;10.05;3.90;;;3.40;82.80;;;;;;4975271;28;20050;-66
2021/11/28 00:39:41;;;;;;;8.65;3.17;;;3.40;82.90;;;;;;4973132;28;20089;-67
2021/11/28 00:42:08;;;;;;;7.43;4.00;;;3.40;82.80;;;;;;4976809;28;20057;-67
2021/11/28 00:44:37;;;;;;;10.95;4.38;;;3.50;82.80;;;;;;4975131;28;20074;-68
2021/11/28 00:47:04;;;;;;;10.85;3.92;;;3.50;82.80;;;;;;4975658;28;20137;-67
2021/11/28 00:49:34;;;;;;;6.70;3.50;;;3.40;82.90;;;;;;4975968;28;20204;-67
2021/11/28 00:52:00;;;;;;;7.40;3.70;;;3.40;83.00;;;;;;4969360;28;20059;-68
2021/11/28 00:54:31;;;;;;;6.20;3.75;;;3.40;83.00;;;;;;4972688;28;20078;-68
2021/11/28 00:56:59;;;;;;;6.82;3.25;;;3.40;83.10;;;;;;4972911;28;20613;-67
2021/11/28 00:59:29;;;;;;;;;;;3.40;83.10;;;;;;4958990;28;20064;-66
2021/11/28 01:01:57;;;;;;;5.07;2.78;;;3.40;83.10;;;;;;4957293;28;20375;-69
2021/11/28 01:04:24;;;;;;;6.28;3.13;;;3.40;83.30;;;;;;4976699;28;20046;-68
2021/11/28 01:06:52;;;;;;;8.45;4.57;;;3.40;83.30;;;;;;4973677;28;20050;-66
2021/11/28 01:09:19;;;;;;;9.15;3.92;;;3.40;83.30;;;;;;4953573;28;20492;-67
2021/11/28 01:11:46;;;;;;;6.55;3.90;;;3.40;83.30;;;;;;4973353;28;20560;-69
2021/11/28 01:14:15;;;;;;;6.95;3.72;;;3.40;83.30;;;;;;4949714;28;20042;-69
2021/11/28 01:16:44;;;;;;;8.32;3.55;;;3.40;83.40;;;;;;4973838;28;20058;-66
2021/11/28 01:19:12;;;;;;;6.18;2.88;;;3.40;83.40;;;;;;4968990;28;20521;-68
2021/11/28 01:21:50;;;;;;;10.38;4.65;;;3.40;83.30;;;;;;4996485;28;20478;-67
2021/11/28 01:24:17;;;;;;;8.48;3.78;;;3.50;83.40;;;;;;4966828;28;20069;-68
2021/11/28 01:26:44;;;;;;;8.38;4.38;;;3.40;83.40;;;;;;4971659;28;20400;-68
2021/11/28 01:29:11;;;;;;;10.48;3.90;;;3.50;83.30;;;;;;4952638;28;20050;-70
2021/11/28 01:31:38;;;;;;;8.35;4.20;;;3.50;83.40;;;;;;4976319;28;20053;-68
2021/11/28 01:34:07;;;;;;;8.45;4.75;;;3.50;83.40;;;;;;4973311;28;20046;-69
2021/11/28 01:36:37;;;;;;;6.75;4.07;;;3.50;83.40;;;;;;4971552;28;20420;-69
2021/11/28 01:39:05;;;;;;;6.47;3.25;;;3.50;83.40;;;;;;4956093;28;20150;-69
2021/11/28 01:41:32;;;;;;;10.38;3.53;;;3.50;83.40;;;;;;4973430;28;20412;-67
2021/11/28 01:43:59;;;;;;;8.07;3.88;;;3.60;83.40;;;;;;4971400;28;20353;-67
2021/11/28 01:46:27;;;;;;;8.88;3.25;;;3.60;83.40;;;;;;4972281;28;20133;-66
2021/11/28 01:48:55;;;;;;;8.68;4.22;;;3.50;83.50;;;;;;4955578;28;20046;-66
2021/11/28 01:51:25;;;;;;;10.07;3.13;;;3.50;83.50;;;;;;4956111;28;20049;-68
2021/11/28 01:53:55;;;;;;;16.02;4.07;;;3.50;83.40;;;;;;4974696;28;20054;-69
2021/11/28 01:56:24;;;;;;;6.18;2.90;;;3.60;83.40;;;;;;4968801;28;20058;-67
2021/11/28 01:58:51;;;;;;;6.47;3.17;;;3.60;83.50;;;;;;4979238;28;20051;-68
2021/11/28 02:01:19;;;;;;;8.15;3.92;;;3.50;83.50;;;;;;4964326;28;20050;-66
2021/11/28 02:03:49;;;;;;;5.85;3.00;;;3.60;83.50;;;;;;4962021;28;20053;-67
2021/11/28 02:06:18;;;;;;;6.60;3.00;;;3.60;83.60;;;;;;4962076;28;20049;-67
2021/11/28 02:08:46;;;;;;;6.53;3.08;;;3.60;83.60;;;;;;4970181;28;20061;-69
2021/11/28 02:11:14;;;;;;;5.78;2.78;;;3.60;83.60;;;;;;4982563;28;20058;-66
2021/11/28 02:13:42;;;;;;;6.60;3.17;;;3.60;83.50;;;;;;4981845;28;20501;-66
2021/11/28 02:16:12;;;;;;;7.05;3.45;;;3.60;83.50;;;;;;4978403;28;20137;-67
2021/11/28 02:18:40;;;;;;;7.43;2.95;;;3.60;83.50;;;;;;4979569;28;20115;-67
2021/11/28 02:21:10;;;;;;;7.53;4.35;;;3.60;83.50;;;;;;4965248;28;20039;-68
2021/11/28 02:23:38;;;;;;;8.25;3.38;;;3.60;83.50;;;;;;4980171;28;20056;-68
2021/11/28 02:26:09;;;;;;;8.55;3.83;;;3.60;83.60;;;;;;4963423;28;20042;-67
2021/11/28 02:28:39;;;;;;;6.03;2.30;;;3.70;83.50;;;;;;4982560;28;20078;-68
2021/11/28 02:31:06;;;;;;;6.63;3.83;;;3.70;83.60;;;;;;4965746;28;20499;-66
2021/11/28 02:33:34;;;;;;;7.65;3.85;;;3.70;83.60;;;;;;4982238;28;20066;-66
2021/11/28 02:36:02;;;;;;;10.25;3.70;;;3.60;83.60;;;;;;4981092;28;20073;-67
2021/11/28 02:38:30;;;;;;;8.23;4.53;;;3.60;83.70;;;;;;4966273;28;20100;-67
2021/11/28 02:41:01;;;;;;;8.20;3.90;;;3.60;83.80;;;;;;4960865;28;20050;-68
2021/11/28 02:43:38;;;;;;;11.25;4.45;;;3.60;83.80;;;;;;4969158;28;20556;-66
2021/11/28 02:46:09;;;;;;;7.85;3.08;;;3.60;83.70;;;;;;4959531;28;20057;-68
2021/11/28 02:48:35;;;;;;;;;;;3.60;83.60;;;;;;4976593;28;20127;-68
2021/11/28 02:51:03;;;;;;;5.10;2.88;;;3.60;83.70;;;;;;4976050;28;20442;-66
2021/11/28 02:53:39;;;;;;;6.93;3.72;;;3.60;83.60;;;;;;4976240;28;20095;-67
2021/11/28 02:56:07;;;;;;;7.22;3.35;;;3.60;83.60;;;;;;4956659;28;20329;-68
2021/11/28 02:58:36;;;;;;;8.00;3.40;;;3.70;83.50;;;;;;5038969;28;20141;-67
2021/11/28 03:01:06;;;;;;;8.43;3.60;;;3.60;83.50;;;;;;4956346;28;20058;-66
2021/11/28 03:03:34;;;;;;;7.35;3.63;;;3.70;83.40;;;;;;4977878;28;20057;-66
2021/11/28 03:06:01;;;;;;;4.70;2.47;;;3.70;83.40;;;;;;4959757;28;20038;-67
2021/11/28 03:08:31;;;;;;;7.63;3.47;;;3.70;83.40;;;;;;4970085;28;20221;-69
2021/11/28 03:11:08;;;;;;;5.80;3.17;;;3.70;83.50;;;;;;4963648;28;20571;-66
2021/11/28 03:13:45;;;;;;;8.90;3.90;;;3.70;83.50;;;;;;4969473;28;20057;-67
2021/11/28 03:16:21;;;;;;;5.70;2.55;;;3.70;83.50;;;;;;4957799;28;20113;-66
2021/11/28 03:18:50;;;;;;;6.75;3.75;;;3.60;83.60;;;;;;4959057;28;20046;-70
2021/11/28 03:21:19;;;;;;;8.38;3.08;;;3.60;83.70;;;;;;4972618;28;20131;-68
2021/11/28 03:23:49;;;;;;;7.55;3.55;;;3.70;83.70;;;;;;4962303;28;20062;-66
2021/11/28 03:26:23;;;;;;;7.23;3.20;;;3.70;83.70;;;;;;4970498;28;20054;-67
2021/11/28 03:28:52;;;;;;;7.93;3.53;;;3.70;83.70;;;;;;4978733;28;20565;-67
2021/11/28 03:31:29;;;;;;;8.55;3.55;;;3.70;83.70;;;;;;4976158;28;20042;-67
2021/11/28 03:34:17;;;;;;;7.25;3.72;;;3.60;83.80;;;;;;4979036;28;20062;-67
2021/11/28 03:36:49;;;;;;;5.25;3.38;;;3.60;83.80;;;;;;4962433;28;20056;-68
2021/11/28 03:39:19;;;;;;;6.28;3.42;;;3.70;83.80;;;;;;4962323;28;21488;-66
2021/11/28 03:41:51;;;;;;;6.50;3.13;;;3.70;83.80;;;;;;4960338;28;20061;-69
2021/11/28 03:44:19;;;;;;;6.65;3.28;;;3.70;83.70;;;;;;4978021;28;20129;-67
2021/11/28 03:46:59;;;;;;;;;;;3.70;83.80;;;;;;4966996;28;20122;-68
2021/11/28 03:49:26;;;;;;;6.88;3.15;;;3.70;83.80;;;;;;4973283;28;19970;-69
2021/11/28 03:51:58;;;;;;;9.32;3.72;;;3.60;83.80;;;;;;4978369;28;20048;-67
2021/11/28 03:54:25;;;;;;;5.97;2.83;;;3.70;83.80;;;;;;4970633;28;20042;-69
2021/11/28 03:56:54;;;;;;;6.95;3.60;;;3.70;83.80;;;;;;4961801;28;20503;-67
2021/11/28 03:59:23;;;;;;;5.07;2.92;;;3.70;83.80;;;;;;4961459;28;20043;-68
2021/11/28 04:01:50;;;;;;;8.35;3.22;;;3.70;83.80;;;;;;4958782;28;20061;-66
2021/11/28 04:04:17;;;;;;;5.47;3.47;;;3.60;83.70;;;;;;4978725;28;20105;-68
2021/11/28 04:07:04;;;;;;;8.65;3.20;;;3.60;83.80;;;;;;4978219;28;20057;-68
2021/11/28 04:09:33;;;;;;;5.57;3.13;;;3.60;83.90;;;;;;4978029;28;20074;-68
2021/11/28 04:12:02;;;;;;;6.72;3.38;;;3.60;83.90;;;;;;4975663;28;20057;-68
2021/11/28 04:14:32;;;;;;;7.57;3.38;;;3.60;83.80;;;;;;4973850;28;20443;-67
2021/11/28 04:16:59;;;;;;;6.57;3.35;;;3.60;83.80;;;;;;4973650;28;20180;-65
2021/11/28 04:19:29;;;;;;;5.20;2.88;;;3.60;83.80;;;;;;4979369;28;20049;-67
2021/11/28 04:21:56;;;;;;;7.20;4.05;;;3.60;83.80;;;;;;4974959;28;20058;-66
2021/11/28 04:24:26;;;;;;;8.55;3.20;;;3.60;83.90;;;;;;4956707;28;20491;-68
2021/11/28 04:26:55;;;;;;;6.13;2.80;;;3.60;83.80;;;;;;4977732;28;20427;-68
2021/11/28 04:29:23;;;;;;;5.68;3.08;;;3.60;83.80;;;;;;4977588;28;20050;-66
2021/11/28 04:31:51;;;;;;;11.15;3.30;;;3.60;83.90;;;;;;4975858;28;20049;-67
2021/11/28 04:34:19;;;;;;;7.45;3.03;;;3.60;83.80;;;;;;4957033;28;20129;-67
2021/11/28 04:36:46;;;;;;;5.03;2.88;;;3.60;83.80;;;;;;4976201;28;20050;-69
2021/11/28 04:39:15;;;;;;;4.93;2.88;;;3.60;83.80;;;;;;4971489;28;20137;-67
2021/11/28 04:41:42;;;;;;;7.03;2.85;;;3.60;83.80;;;;;;4960348;28;20545;-69
2021/11/28 04:44:10;;;;;;;7.68;3.85;;;3.60;83.80;;;;;;4959544;28;20062;-67
2021/11/28 04:46:39;;;;;;;6.72;3.58;;;3.70;83.90;;;;;;4961980;28;20038;-68
2021/11/28 04:49:06;;;;;;;6.80;3.30;;;3.60;83.90;;;;;;4968570;28;20471;-68
2021/11/28 04:51:36;;;;;;;;;;;3.60;83.90;;;;;;4978808;28;22095;-67
2021/11/28 04:54:06;;;;;;;4.78;2.03;;;3.60;83.90;;;;;;4983932;28;19929;-68
2021/11/28 04:56:33;;;;;;;6.60;2.83;;;3.60;83.90;;;;;;4978770;28;20633;-67
2021/11/28 04:59:00;;;;;;;4.43;2.55;;;3.60;83.90;;;;;;4982551;28;20050;-69
2021/11/28 05:01:32;;;;;;;7.40;3.45;;;3.70;84.00;;;;;;4980613;28;20050;-67
2021/11/28 05:04:19;;;;;;;7.60;3.47;;;3.60;84.00;;;;;;4974488;28;20089;-69
2021/11/28 05:06:46;;;;;;;5.20;2.80;;;3.60;84.00;;;;;;4967418;28;21182;-67
2021/11/28 05:09:30;;;;;;;8.68;3.72;;;3.60;84.00;;;;;;4983986;28;20549;-67
2021/11/28 05:11:57;;;;;;;7.93;3.20;;;3.60;84.00;;;;;;4974799;28;20540;-68
2021/11/28 05:14:24;;;;;;;4.70;2.63;;;3.60;84.00;;;;;;4955193;28;20068;-67
2021/11/28 05:16:51;;;;;;;4.88;2.72;;;3.70;83.90;;;;;;4960835;28;20046;-67
2021/11/28 05:19:31;;;;;;;4.53;2.65;;;3.70;83.90;;;;;;4961608;28;20169;-68
2021/11/28 05:22:34;;;;;;;5.13;2.85;;;3.60;83.90;;;;;;4959810;28;20050;-69
2021/11/28 05:25:03;;;;;;;6.80;3.30;;;3.60;83.90;;;;;;4957802;28;20553;-70
2021/11/28 05:27:30;;;;;;;5.40;3.10;;;3.70;84.00;;;;;;4974848;28;20054;-68
2021/11/28 05:30:00;;;;;;;5.30;2.50;;;3.60;84.00;;;;;;4974628;28;20042;-69
2021/11/28 05:32:31;;;;;;;5.25;2.55;;;3.60;84.10;;;;;;4955936;28;20170;-67
2021/11/28 05:35:17;;;;;;;7.72;3.17;;;3.60;84.10;;;;;;4973158;28;20091;-68
2021/11/28 05:38:04;;;;;;;7.10;3.10;;;3.60;84.10;;;;;;4975956;28;20632;-67
2021/11/28 05:40:32;;;;;;;9.68;4.03;;;3.60;83.90;;;;;;4958498;28;20187;-70
2021/11/28 05:42:59;;;;;;;7.97;3.38;;;3.70;83.90;;;;;;4981776;28;20552;-67
2021/11/28 05:45:27;;;;;;;5.20;3.08;;;3.70;83.80;;;;;;4976074;28;20050;-66
2021/11/28 05:47:57;;;;;;;5.88;3.33;;;3.60;83.90;;;;;;4979008;28;20046;-68
2021/11/28 05:50:34;;;;;;;6.32;2.80;;;3.70;83.90;;;;;;4967038;28;20099;-67
2021/11/28 05:53:02;;;;;;;4.93;2.83;;;3.70;83.90;;;;;;4969426;28;20149;-69
2021/11/28 05:55:29;;;;;;;6.07;3.85;;;3.60;83.90;;;;;;4963826;28;20092;-67
2021/11/28 05:57:57;;;;;;;5.47;2.65;;;3.60;84.00;;;;;;4982382;28;20049;-69
2021/11/28 06:00:26;;;;;;;6.10;3.45;;;3.60;84.10;;;;;;4958736;28;20270;-67
2021/11/28 06:02:53;;;;;;;5.40;2.80;;;3.70;84.10;;;;;;4977494;28;20050;-66
2021/11/28 06:05:43;;;;;;;7.35;2.97;;;3.70;84.00;;;;;;4975303;28;20207;-68
2021/11/28 06:08:18;;;;;;;6.25;3.33;;;3.60;84.10;;;;;;4973263;28;20134;-67
2021/11/28 06:10:48;;;;;;;5.70;2.65;;;3.60;84.10;;;;;;4962025;28;20423;-69
2021/11/28 06:13:15;;;;;;;5.03;2.90;;;3.60;84.20;;;;;;4974429;28;20052;-67
2021/11/28 06:15:48;;;;;;;5.32;2.28;;;3.60;84.20;;;;;;4974845;28;20161;-68
2021/11/28 06:18:50;;;;;;;5.28;3.10;;;3.70;84.10;;;;;;4974560;28;20068;-68
2021/11/28 06:21:22;;;;;;;5.73;2.93;;;3.70;84.10;;;;;;4959553;28;20077;-69
2021/11/28 06:24:04;;;;;;;4.20;2.47;;;3.60;84.10;;;;;;4975603;28;20539;-69
2021/11/28 06:26:31;;;;;;;7.22;2.85;;;3.60;84.20;;;;;;4959563;28;20046;-68
2021/11/28 06:28:59;;;;;;;5.53;2.75;;;3.60;84.10;;;;;;4976628;28;20050;-69
2021/11/28 06:31:26;;;;;;;5.82;2.80;;;3.60;84.10;;;;;;4974736;28;20293;-67
2021/11/28 06:34:19;;;;;;;8.32;3.70;;;3.60;84.20;;;;;;4971269;28;20049;-69
2021/11/28 06:37:06;;;;;;;8.73;2.60;;;3.60;84.30;;;;;;4976428;28;20271;-67
2021/11/28 06:39:56;;;;;;;8.40;2.75;;;3.60;84.30;;;;;;4970936;28;20522;-69
2021/11/28 06:42:33;;;;;;;5.60;2.85;;;3.60;84.20;;;;;;4971841;28;20161;-67
2021/11/28 06:45:00;;;;;;;5.63;3.15;;;3.70;84.20;;;;;;4976469;28;20053;-68
2021/11/28 06:47:34;;;;;;;5.35;3.13;;;3.70;84.30;;;;;;4973808;28;20295;-68
2021/11/28 06:50:01;;;;;;;7.35;3.25;;;3.70;84.30;;;;;;4972106;28;20053;-68
2021/11/28 06:52:49;;;;;;;8.65;3.80;;;3.70;84.30;;;;;;4978108;28;20720;-68
2021/11/28 06:55:26;;;;;;;6.18;3.63;;;3.70;84.30;;;;;;4980142;28;20543;-67
2021/11/28 06:58:20;;;;;;;7.97;4.00;;;3.70;84.30;;;;;;4987459;28;20050;-67
2021/11/28 07:00:47;;;;;;;7.72;3.95;;;3.70;84.20;;;;;;4960613;28;20052;-66
2021/11/28 07:03:15;;;;;;;8.02;3.22;;;3.70;84.30;;;;;;5013927;28;20070;-68
2021/11/28 07:06:05;;;;;;;6.22;3.45;;;3.70;84.30;;;;;;4932642;28;20065;-68
2021/11/28 07:08:34;;;;;;;5.93;3.55;;;3.70;84.30;;;;;;4961455;28;20520;-68
2021/11/28 07:11:01;;;;;;;8.18;3.35;;;3.70;84.30;;;;;;4980043;28;20074;-70
2021/11/28 07:13:31;;;;;;;6.28;3.03;;;3.70;84.30;;;;;;4963348;28;20065;-67
2021/11/28 07:15:58;;;;;;;8.85;3.95;;;3.70;84.20;;;;;;4975748;28;20046;-68
2021/11/28 07:18:32;;;;;;;6.78;2.95;;;3.70;84.20;;;;;;4978833;28;20043;-69
2021/11/28 07:21:20;;;;;;;6.53;2.63;;;3.70;84.20;;;;;;4957708;28;20058;-68
2021/11/28 07:23:52;;;;;;;5.18;2.72;;;3.70;84.20;;;;;;4977589;28;20058;-67
2021/11/28 07:26:19;;;;;;;3.70;2.35;;;3.70;84.20;;;;;;4982676;28;20046;-68
2021/11/28 07:28:49;;;;;;;5.60;2.92;;;3.70;84.20;;;;;;4963999;28;20057;-68
2021/11/28 07:31:19;;;;;;;;;;;3.80;84.20;;;;;;4963316;28;20074;-70
2021/11/28 07:34:01;;;;;;;4.63;2.60;;;3.70;84.20;;;;;;4978019;28;20063;-67
2021/11/28 07:36:49;;;;;;;6.15;3.35;;;3.80;84.20;;;;;;4977037;28;20168;-68
2021/11/28 07:39:18;;;;;;;6.20;3.10;;;3.80;84.20;;;;;;4979478;28;20521;-68
2021/11/28 07:41:46;;;;;;;5.63;2.97;;;3.80;84.30;;;;;;4977828;28;20053;-67
2021/11/28 07:44:31;;;;;;;6.05;3.35;;;3.80;84.40;;;;;;4980249;28;20049;-69
2021/11/28 07:47:30;;;;;;;8.60;3.03;;;3.80;84.20;;;;;;4977529;28;20196;-70
2021/11/28 07:50:16;;;;;;;7.00;3.03;;;3.80;84.40;;;;;;4979946;28;20062;-68
2021/11/28 07:52:46;;;;;;;6.05;3.25;;;3.80;84.30;;;;;;4961549;28;20054;-66
2021/11/28 07:55:20;;;;;;;5.15;2.42;;;3.90;84.30;;;;;;4976902;28;20058;-68
2021/11/28 07:58:16;;;;;;;5.80;2.45;;;3.90;84.30;;;;;;4972023;28;20287;-69
2021/11/28 08:00:57;;;;;;;7.10;2.85;;;3.90;84.40;;;;;;4959143;28;20062;-67
2021/11/28 08:03:32;;;;;;;8.70;3.70;;;3.80;84.50;;;;;;4973605;28;20057;-67
2021/11/28 08:06:18;;;;;;;6.20;3.58;;;3.90;84.40;;;;;;4977442;28;20073;-68
2021/11/28 08:08:51;;;;;;;7.13;3.15;;;3.90;84.50;;;;;;4982603;28;20057;-67
2021/11/28 08:11:31;;;;;;;5.25;3.30;;;3.90;84.50;;;;;;4977291;28;20050;-69
2021/11/28 08:13:58;;;;;;;6.10;3.53;;;3.90;84.60;;;;;;4976386;28;20049;-68
2021/11/28 08:16:25;;;;;;;6.90;2.97;;;3.90;84.60;;;;;;4972597;28;20050;-69
2021/11/28 08:18:52;;;;;;;6.72;3.67;;;3.90;84.60;;;;;;4975713;28;20073;-67
2021/11/28 08:21:22;;;;;;;11.23;4.53;;;3.90;84.50;;;;;;4957361;28;20050;-69
2021/11/28 08:23:49;;;;;;;7.72;2.97;;;4.00;84.60;;;;;;4980020;28;20407;-67
2021/11/28 08:26:16;;;;;;;4.95;2.42;;;4.00;84.50;;;;;;4978905;28;20055;-66
2021/11/28 08:28:45;;;;;;;6.60;3.10;;;3.90;84.50;;;;;;4977088;28;20046;-67
2021/11/28 08:31:12;;;;;;;6.05;3.20;;;3.90;84.50;;;;;;4976068;28;20078;-67
2021/11/28 08:33:42;;;;;;;6.85;2.90;;;3.90;84.40;;;;;;4978765;28;20156;-68
2021/11/28 08:36:22;;;;;;;5.60;2.40;;;4.00;84.50;;;;;;4959560;28;20050;-67
2021/11/28 08:38:51;;;;;;;5.13;2.83;;;4.00;84.40;;;;;;4981921;28;20061;-68
2021/11/28 08:41:21;;;;;;;6.45;3.10;;;4.00;84.50;;;;;;4978187;28;20049;-67
2021/11/28 08:43:52;;;;;;;8.63;2.75;;;4.00;84.60;;;;;;4978038;28;20050;-67
2021/11/28 08:46:19;;;;;;;11.35;3.33;;;4.00;84.60;;;;;;4979438;28;20050;-68
2021/11/28 08:48:47;;;;;;;5.30;3.45;;;3.90;84.60;;;;;;4976250;28;20056;-71
2021/11/28 08:51:15;;;;;;;4.78;2.65;;;3.90;84.80;;;;;;4977606;28;20077;-68
2021/11/28 08:53:43;;;;;;;8.27;3.67;;;4.00;84.80;;;;;;4979773;28;20050;-68
2021/11/28 08:56:10;;;;;;;10.68;4.93;;;4.00;84.70;;;;;;4976798;28;20046;-68
2021/11/28 08:58:37;;;;;;;7.20;3.13;;;4.00;84.60;;;;;;4974360;28;20047;-69
2021/11/28 09:01:05;;;;;;;6.30;2.75;;;4.00;84.60;;;;;;4976222;28;20053;-80
2021/11/28 09:03:33;;;;;;;6.97;3.40;;;4.00;84.60;;;;;;4978765;28;20043;-80
2021/11/28 09:06:00;;;;;;;4.50;2.38;;;4.00;84.60;;;;;;4975188;28;20533;-78
2021/11/28 09:08:30;;;;;;;6.13;3.13;;;4.00;84.60;;;;;;4976881;28;20073;-77
2021/11/28 09:10:58;;;;;;;4.88;2.78;;;4.10;84.60;;;;;;4977029;28;20061;-79
2021/11/28 09:13:25;;;;;;;5.93;3.22;;;4.10;84.60;;;;;;4977029;28;20080;-76
2021/11/28 09:15:52;;;;;;;6.78;3.42;;;4.10;84.60;;;;;;4978617;28;20043;-76
2021/11/28 09:18:23;;;;;;;5.45;2.70;;;4.10;84.70;;;;;;4977286;28;20054;-76
2021/11/28 09:20:57;;;;;;;4.38;2.30;;;4.20;84.50;;;;;;4977599;28;20069;-79
2021/11/28 09:26:08;;;;;;;9.15;3.70;;;4.20;84.70;;;;;;4977533;28;20046;-78
2021/11/28 09:28:37;;;;;;;5.72;3.33;;;4.20;84.70;;;;;;4978972;28;20255;-79
2021/11/28 09:31:04;;;;;;;8.20;4.10;;;4.20;84.60;;;;;;4975110;28;20053;-77
2021/11/28 09:33:33;;;;;;;4.63;3.22;;;4.20;84.60;;;;;;4976905;28;20124;-79
2021/11/28 09:35:59;;;;;;;7.35;2.58;;;4.20;84.70;;;;;;4973508;28;20049;-77
2021/11/28 09:38:26;;;;;;;9.75;3.15;;;4.20;84.60;;;;;;4974658;28;20048;-77
2021/11/28 09:40:57;;;;;;;3.75;2.35;;;4.30;84.60;;;;;;4973742;28;20111;-76
2021/11/28 09:43:26;;;;;;;6.15;2.72;;;4.30;84.50;;;;;;4974621;28;20443;-78
2021/11/28 09:45:55;;;;;;;4.65;2.67;;;4.30;84.50;;;;;;4980262;28;20464;-75
2021/11/28 09:48:24;;;;;;;5.95;2.67;;;4.30;84.40;;;;;;4978588;28;20045;-78
2021/11/28 09:50:54;;;;;;;6.25;3.08;;;4.40;84.40;;;;;;4977053;28;20357;-76
2021/11/28 09:53:24;;;;;;;7.35;3.58;;;4.40;84.40;;;;;;4980021;28;20100;-75
2021/11/28 09:55:52;;;;;;;6.35;3.38;;;4.40;84.40;;;;;;4975965;28;20045;-79
2021/11/28 09:58:20;;;;;;;4.88;2.50;;;4.40;84.40;;;;;;4976000;28;20052;-76
2021/11/28 10:00:47;;;;;;;6.22;2.88;;;4.40;84.50;;;;;;4970673;28;20053;-79
2021/11/28 10:03:14;;;;;;;6.13;2.90;;;4.40;84.40;;;;;;4976082;28;20043;-78
2021/11/28 10:05:41;;;;;;;7.38;3.15;;;4.50;84.30;;;;;;4978577;28;20057;-76
2021/11/28 10:08:11;;;;;;;5.53;2.95;;;4.50;84.20;;;;;;4971316;28;20057;-79
2021/11/28 10:10:39;;;;;;;6.85;3.13;;;4.60;84.20;;;;;;4972388;28;20140;-78
2021/11/28 10:13:06;;;;;;;7.47;3.13;;;4.60;84.00;;;;;;4974196;28;20074;-75
2021/11/28 10:15:33;;;;;;;4.10;2.38;;;4.60;84.10;;;;;;4975477;28;20046;-78
2021/11/28 10:18:01;;;;;;;6.40;2.92;;;4.60;84.10;;;;;;4975387;28;20053;-79
2021/11/28 10:20:37;;;;;;;7.20;3.55;;;4.60;84.00;;;;;;4977012;28;20043;-79
2021/11/28 10:23:04;;;;;;;5.78;2.88;;;4.60;84.00;;;;;;4977501;28;20057;-80
2021/11/28 10:25:33;;;;;;;6.90;3.70;;;4.60;83.90;;;;;;4976754;28;20177;-79
2021/11/28 10:28:04;;;;;;;7.68;3.28;;;4.60;83.80;;;;;;4976838;28;20065;-77
2021/11/28 10:30:37;;;;;;;5.68;3.53;;;4.70;83.90;;;;;;4975916;28;20050;-79
2021/11/28 10:33:09;;;;;;;6.68;3.45;;;4.70;83.80;;;;;;4977190;28;20519;-78
2021/11/28 10:35:36;;;;;;;6.60;2.80;;;4.70;83.90;;;;;;4977568;28;20057;-79
2021/11/28 10:38:12;;;;;;;5.65;3.33;;;4.70;83.80;;;;;;4974844;28;20046;-79
2021/11/28 10:40:44;;;;;;;7.25;3.47;;;4.70;83.60;;;;;;4974875;28;20058;-76
2021/11/28 10:43:14;;;;;;;6.25;2.92;;;4.70;83.60;;;;;;4977780;28;20065;-80
2021/11/28 10:45:47;;;;;;;6.53;3.20;;;4.70;83.60;;;;;;4972581;28;20050;-77
2021/11/28 10:48:14;;;;;;;4.30;2.33;;;4.70;83.50;;;;;;4976135;28;20047;-77
2021/11/28 10:50:43;;;;;;;5.18;3.33;;;4.70;83.40;;;;;;4976814;28;20070;-75
2021/11/28 10:53:14;;;;;;;5.13;3.03;;;4.70;83.50;;;;;;4974235;28;20046;-77
2021/11/28 10:55:45;;;;;;;7.35;2.97;;;4.70;83.50;;;;;;4977248;28;20705;-78
2021/11/28 10:58:13;;;;;;;;;;;4.70;83.50;;;;;;4975925;28;20054;-77
2021/11/28 11:00:42;;;;;;;6.72;3.55;;;4.80;83.40;;;;;;4974480;28;19922;-78
2021/11/28 11:03:19;;;;;;;5.13;2.92;;;4.80;83.40;;;;;;4973190;28;20502;-76
2021/11/28 11:05:49;;;;;;;7.38;3.40;;;4.80;83.30;;;;;;4974223;28;20066;-77
2021/11/28 11:08:16;;;;;;;6.57;3.22;;;4.80;83.30;;;;;;4977106;28;20053;-76
2021/11/28 11:10:46;;;;;;;6.22;3.30;;;4.80;83.40;;;;;;4975019;28;20129;-75
2021/11/28 11:13:15;;;;;;;8.85;3.63;;;4.80;83.20;;;;;;4977191;28;20046;-78
2021/11/28 11:15:45;;;;;;;6.35;3.20;;;4.90;83.20;;;;;;4976672;28;20050;-77
2021/11/28 11:18:15;;;;;;;5.50;3.08;;;4.90;83.10;;;;;;4975185;28;20058;-79
2021/11/28 11:20:44;;;;;;;7.37;3.83;;;4.90;83.30;;;;;;4973722;28;20061;-78
2021/11/28 11:23:36;;;;;;;7.15;3.33;;;4.90;83.20;;;;;;4971002;28;20092;-78
2021/11/28 11:26:17;;;;;;;7.35;3.65;;;4.90;83.10;;;;;;4975422;28;20389;-76
2021/11/28 11:29:11;;;;;;;7.13;3.58;;;4.90;83.00;;;;;;4973040;28;20047;-77
2021/11/28 11:31:41;;;;;;;9.30;3.97;;;5.00;83.00;;;;;;4984193;28;20329;-78
2021/11/28 11:34:25;;;;;;;7.27;4.47;;;4.90;83.00;;;;;;4975262;28;20056;-77
2021/11/28 11:36:54;;;;;;;8.52;3.33;;;4.90;83.00;;;;;;4974409;28;20503;-78
2021/11/28 11:39:23;;;;;;;7.38;3.55;;;4.90;83.10;;;;;;4973337;28;20046;-78
2021/11/28 11:41:51;;;;;;;6.45;3.47;;;5.00;83.00;;;;;;4979065;28;20065;-75
2021/11/28 11:44:19;;;;;;;8.38;3.78;;;5.00;83.00;;;;;;4977702;28;20050;-74
2021/11/28 11:46:46;;;;;;;9.45;4.20;;;5.00;83.10;;;;;;4976003;28;20073;-78
2021/11/28 11:49:14;;;;;;;7.97;3.38;;;5.00;83.20;;;;;;4976983;28;20282;-78
2021/11/28 11:51:42;;;;;;;6.10;3.10;;;5.00;83.10;;;;;;4963230;28;20463;-76
2021/11/28 11:54:17;;;;;;;8.15;2.92;;;5.00;83.10;;;;;;4977671;28;20046;-81
2021/11/28 11:56:46;;;;;;;6.45;2.85;;;5.10;83.20;;;;;;4977704;28;20050;-77
2021/11/28 11:59:23;;;;;;;8.18;3.83;;;5.10;83.30;;;;;;4976455;28;20060;-78
2021/11/28 12:02:01;;;;;;;6.15;2.47;;;5.10;83.20;;;;;;4977552;28;20043;-76
2021/11/28 12:04:42;;;;;;;3.80;2.08;;;5.20;82.90;;;;;;5058149;28;20127;-78
2021/11/28 12:07:10;;;;;;;5.15;2.53;;;5.10;82.40;;;;;;5062205;28;20052;-77
2021/11/28 12:09:38;;;;;;;6.47;2.70;;;5.20;82.20;;;;;;5060758;28;20067;-78
2021/11/28 12:12:07;;;;;;;5.28;2.88;;;5.20;82.30;;;;;;5060309;28;20079;-78
2021/11/28 12:14:37;;;;;;;8.05;2.58;;;5.20;82.10;;;;;;5058343;28;20044;-78
2021/11/28 12:17:38;;;;;;;4.28;2.75;;;5.20;82.20;;;;;;5060428;28;20048;-80
2021/11/28 12:20:06;;;;;;;4.75;2.65;;;5.20;82.20;;;;;;5061329;28;20049;-80
2021/11/28 12:22:44;;;;;;;7.05;3.22;;;5.20;82.10;;;;;;5052148;28;20044;-77
2021/11/28 12:25:37;;;;;;;7.38;3.38;;;5.30;82.20;;;;;;5060510;28;20057;-78
2021/11/28 12:28:32;;;;;;;4.90;2.63;;;5.30;82.20;;;;;;5058300;28;20591;-77
2021/11/28 12:31:02;;;;;;;8.38;3.70;;;5.30;82.30;;;;;;5054672;28;20114;-77
2021/11/28 12:34:03;;;;;;;9.43;4.95;;;5.30;82.00;;;;;;5058281;28;20044;-79
2021/11/28 12:36:55;;;;;;;11.77;4.13;;;5.30;82.00;;;;;;5059121;28;20033;-77
2021/11/28 12:39:39;;;;;;;11.57;4.60;;;5.40;81.90;;;;;;5037750;28;20060;-76
2021/11/28 12:42:09;;;;;;;12.40;5.13;;;5.40;82.00;;;;;;5058159;28;20045;-77
2021/11/28 12:44:38;;;;;;;8.00;3.47;;;5.40;81.80;;;;;;5060324;28;20048;-79
2021/11/28 12:47:21;;;;;;;8.73;4.10;;;5.40;81.80;;;;;;5060461;28;20044;-76
2021/11/28 12:49:51;;;;;;;6.35;3.75;;;5.40;81.80;;;;;;5056230;28;20044;-77
2021/11/28 12:52:39;;;;;;;6.30;3.33;;;5.40;81.80;;;;;;5060028;28;20051;-78
2021/11/28 12:55:28;;;;;;;6.18;3.42;;;5.30;81.90;;;;;;5059878;28;20058;-76
2021/11/28 12:58:09;;;;;;;7.60;4.18;;;5.40;81.90;;;;;;5046637;28;20048;-76
2021/11/28 13:00:39;;;;;;;8.32;3.53;;;5.40;81.90;;;;;;5054079;28;20045;-80
2021/11/28 13:03:34;;;;;;;8.68;3.45;;;5.40;81.70;;;;;;5010651;28;20432;-78
2021/11/28 13:06:01;;;;;;;7.38;3.47;;;5.30;81.60;;;;;;4928367;28;20043;-79
2021/11/28 13:08:37;;;;;;;4.95;2.70;;;5.30;81.70;;;;;;4973661;28;20368;-78
2021/11/28 13:11:14;;;;;;;7.22;3.17;;;5.30;81.60;;;;;;4976906;28;20666;-80
2021/11/28 13:13:44;;;;;;;6.07;3.13;;;5.40;81.60;;;;;;4975634;28;20057;-77
2021/11/28 13:16:14;;;;;;;5.35;2.78;;;5.30;81.60;;;;;;4978123;28;20062;-78
2021/11/28 13:18:48;;;;;;;10.05;3.88;;;5.30;81.60;;;;;;4974943;28;20125;-79
2021/11/28 13:21:25;;;;;;;5.72;3.05;;;5.30;81.50;;;;;;4976175;28;20054;-78
2021/11/28 13:24:11;;;;;;;6.63;3.03;;;5.30;81.40;;;;;;4974426;28;20081;-77
2021/11/28 13:26:57;;;;;;;6.63;2.97;;;5.30;81.60;;;;;;4974682;28;20511;-78